createdAt,value
2019-05-13T00:00:53.728Z,5.60
2019-05-13T00:06:05.200Z,5.70
2019-05-13T00:11:13.627Z,5.60
2019-05-13T00:16:23.477Z,5.50
2019-05-13T00:21:30.644Z,5.50
2019-05-13T00:26:56.257Z,5.50
2019-05-13T00:32:44.608Z,5.40
2019-05-13T00:38:11.153Z,5.30
2019-05-13T00:43:36.444Z,5.30
2019-05-13T00:49:01.645Z,5.30
2019-05-13T00:54:27.088Z,5.20
2019-05-13T00:59:54.049Z,5.10
2019-05-13T01:05:19.179Z,5.10
2019-05-13T01:10:45.227Z,5.00
2019-05-13T01:16:10.752Z,5.00
2019-05-13T01:21:35.759Z,4.90
2019-05-13T01:27:00.667Z,4.80
2019-05-13T01:32:25.944Z,4.70
2019-05-13T01:37:50.965Z,4.70
2019-05-13T01:43:17.250Z,4.60
2019-05-13T01:48:43.721Z,4.60
2019-05-13T01:53:53.281Z,4.50
2019-05-13T01:58:59.850Z,4.50
2019-05-13T02:04:06.908Z,4.30
2019-05-13T02:09:33.922Z,4.20
2019-05-13T02:14:58.829Z,4.20
2019-05-13T02:20:24.754Z,4.10
2019-05-13T02:25:50.257Z,4.00
2019-05-13T02:31:23.014Z,4.00
2019-05-13T02:36:43.854Z,3.80
2019-05-13T02:42:12.943Z,4.00
2019-05-13T02:47:36.441Z,3.80
2019-05-13T02:53:02.751Z,3.80
2019-05-13T02:58:28.327Z,3.70
2019-05-13T03:03:53.748Z,3.60
2019-05-13T03:09:18.695Z,3.50
2019-05-13T03:14:48.008Z,3.60
2019-05-13T03:20:15.780Z,3.50
2019-05-13T03:25:38.161Z,3.60
2019-05-13T03:31:06.534Z,3.40
2019-05-13T03:36:35.720Z,3.40
2019-05-13T03:42:02.926Z,3.30
2019-05-13T03:47:32.837Z,3.30
2019-05-13T03:53:03.006Z,3.20
2019-05-13T03:58:13.122Z,3.10
2019-05-13T04:03:22.762Z,3.00
2019-05-13T04:08:43.354Z,3.00
2019-05-13T04:13:52.745Z,3.10
2019-05-13T04:19:02.740Z,3.10
2019-05-13T04:24:12.290Z,3.10
2019-05-13T04:29:23.338Z,3.20
2019-05-13T04:34:33.309Z,3.20
2019-05-13T04:39:47.785Z,3.40
2019-05-13T04:44:48.848Z,3.60
2019-05-13T04:49:55.930Z,4.00
2019-05-13T04:55:06.347Z,3.90
2019-05-13T05:00:16.632Z,4.00
2019-05-13T05:06:03.236Z,4.20
2019-05-13T05:11:55.743Z,4.30
2019-05-13T05:17:47.001Z,4.50
2019-05-13T05:23:21.417Z,4.60
2019-05-13T05:29:24.452Z,4.70
2019-05-13T05:35:04.486Z,5.00
2019-05-13T05:40:28.077Z,5.20
2019-05-13T05:45:25.252Z,5.50
2019-05-13T05:50:42.943Z,5.80
2019-05-13T05:55:54.975Z,5.70
2019-05-13T06:01:04.478Z,5.70
2019-05-13T06:06:15.112Z,5.80
2019-05-13T06:11:22.367Z,6.30
2019-05-13T06:16:42.588Z,6.50
2019-05-13T06:21:51.496Z,6.70
2019-05-13T06:27:01.593Z,6.70
2019-05-13T06:32:19.049Z,6.80
2019-05-13T06:37:21.784Z,7.50
2019-05-13T06:42:32.508Z,7.00
2019-05-13T06:47:57.767Z,7.40
2019-05-13T06:53:08.478Z,7.80
2019-05-13T06:58:33.774Z,8.00
2019-05-13T07:03:59.189Z,8.30
2019-05-13T07:09:37.308Z,8.00
2019-05-13T07:15:02.681Z,8.30
2019-05-13T07:20:27.788Z,8.50
2019-05-13T07:25:52.858Z,8.40
2019-05-13T07:31:02.491Z,8.00
2019-05-13T07:36:12.720Z,8.20
2019-05-13T07:41:35.285Z,8.20
2019-05-13T07:46:32.435Z,8.70
2019-05-13T07:51:42.005Z,9.50
2019-05-13T07:57:01.774Z,8.70
2019-05-13T08:02:08.964Z,9.70
2019-05-13T08:07:16.801Z,10.00
2019-05-13T08:12:23.955Z,9.10
2019-05-13T08:17:32.677Z,9.20
2019-05-13T08:22:42.446Z,9.80
2019-05-13T08:28:07.543Z,10.50
2019-05-13T08:33:32.758Z,10.40
2019-05-13T08:38:48.042Z,10.30
2019-05-13T08:44:13.130Z,10.60
2019-05-13T08:49:21.980Z,10.60
2019-05-13T08:54:29.081Z,10.80
2019-05-13T08:59:36.196Z,10.70
2019-05-13T09:04:44.249Z,11.00
2019-05-13T09:09:52.024Z,10.80
2019-05-13T09:14:59.646Z,11.50
2019-05-13T09:20:08.440Z,10.50
2019-05-13T09:25:16.274Z,11.00
2019-05-13T09:30:27.223Z,11.40
2019-05-13T09:35:34.559Z,11.60
2019-05-13T09:40:42.547Z,11.10
2019-05-13T09:46:01.810Z,11.30
2019-05-13T09:51:12.492Z,11.00
2019-05-13T09:56:22.443Z,11.00
2019-05-13T10:01:31.984Z,11.10
2019-05-13T10:06:42.210Z,11.50
2019-05-13T10:11:52.061Z,12.20
2019-05-13T10:17:05.697Z,12.30
2019-05-13T10:22:11.987Z,12.30
2019-05-13T10:27:22.375Z,12.60
2019-05-13T10:32:32.506Z,12.20
2019-05-13T10:37:41.845Z,12.30
2019-05-13T10:42:52.448Z,12.10
2019-05-13T10:48:02.792Z,12.70
2019-05-13T10:53:12.423Z,12.70
2019-05-13T10:58:23.270Z,12.30
2019-05-13T11:03:32.828Z,12.70
2019-05-13T11:08:45.104Z,13.00
2019-05-13T11:14:15.142Z,12.00
2019-05-13T11:19:37.289Z,13.00
2019-05-13T11:25:02.710Z,12.50
2019-05-13T11:30:28.866Z,12.90
2019-05-13T11:35:53.795Z,12.90
2019-05-13T11:41:04.947Z,13.30
2019-05-13T11:46:15.725Z,13.70
2019-05-13T11:51:24.341Z,12.50
2019-05-13T11:56:33.734Z,12.60
2019-05-13T12:01:44.391Z,12.90
2019-05-13T12:06:54.515Z,12.10
2019-05-13T12:12:03.358Z,11.70
2019-05-13T12:17:14.211Z,11.60
2019-05-13T12:22:24.403Z,11.30
2019-05-13T12:27:31.818Z,12.00
2019-05-13T12:32:42.802Z,13.00
2019-05-13T12:38:02.711Z,13.10
2019-05-13T12:43:13.231Z,13.40
2019-05-13T12:48:22.682Z,13.60
2019-05-13T12:53:32.030Z,13.80
2019-05-13T12:58:38.311Z,14.00
2019-05-13T13:03:46.985Z,12.90
2019-05-13T13:08:54.214Z,12.90
2019-05-13T13:14:05.683Z,13.00
2019-05-13T13:19:14.854Z,13.00
2019-05-13T13:24:23.636Z,12.70
2019-05-13T13:29:28.232Z,13.00
2019-05-13T13:34:36.125Z,12.40
2019-05-13T13:39:44.070Z,12.10
2019-05-13T13:44:53.904Z,11.90
2019-05-13T13:49:59.682Z,12.10
2019-05-13T13:55:09.233Z,12.30
2019-05-13T14:00:34.506Z,12.10
2019-05-13T14:05:27.629Z,12.00
2019-05-13T14:10:35.389Z,11.70
2019-05-13T14:15:43.318Z,12.30
2019-05-13T14:20:53.090Z,13.40
2019-05-13T14:26:03.072Z,13.50
2019-05-13T14:31:10.181Z,13.70
2019-05-13T14:36:18.654Z,13.70
2019-05-13T14:41:25.718Z,13.80
2019-05-13T14:46:46.256Z,14.00
2019-05-13T14:51:43.450Z,13.40
2019-05-13T14:56:52.040Z,13.00
2019-05-13T15:02:02.384Z,12.20
2019-05-13T15:07:12.280Z,12.40
2019-05-13T15:12:21.798Z,12.30
2019-05-13T15:17:32.480Z,12.20
2019-05-13T15:22:43.440Z,12.20
2019-05-13T15:27:52.910Z,12.20
2019-05-13T15:33:02.747Z,13.20
2019-05-13T15:38:12.582Z,13.60
2019-05-13T15:43:22.536Z,13.20
2019-05-13T15:48:31.548Z,13.30
2019-05-13T15:53:43.548Z,13.30
2019-05-13T15:58:53.206Z,13.00
2019-05-13T16:04:03.000Z,12.60
2019-05-13T16:09:11.945Z,12.50
2019-05-13T16:14:22.184Z,12.00
2019-05-13T16:19:32.702Z,12.10
2019-05-13T16:24:41.517Z,12.20
2019-05-13T16:29:51.377Z,13.00
2019-05-13T16:35:02.733Z,12.70
2019-05-13T16:40:12.904Z,12.30
2019-05-13T16:45:23.102Z,12.10
2019-05-13T16:50:31.508Z,12.30
2019-05-13T16:55:52.313Z,12.10
2019-05-13T17:01:02.432Z,12.30
2019-05-13T17:06:14.331Z,11.80
2019-05-13T17:11:22.740Z,11.80
2019-05-13T17:16:32.082Z,11.60
2019-05-13T17:21:41.212Z,11.40
2019-05-13T17:26:52.249Z,11.50
2019-05-13T17:32:08.085Z,11.40
2019-05-13T17:37:16.440Z,11.30
2019-05-13T17:42:28.060Z,11.60
2019-05-13T17:47:38.695Z,11.80
2019-05-13T17:52:51.405Z,11.60
2019-05-13T17:58:01.376Z,11.50
2019-05-13T18:03:11.562Z,11.40
2019-05-13T18:08:21.668Z,11.20
2019-05-13T18:13:30.199Z,11.00
2019-05-13T18:18:44.153Z,10.80
2019-05-13T18:24:01.465Z,10.60
2019-05-13T18:29:14.523Z,10.40
2019-05-13T18:34:22.354Z,10.10
2019-05-13T18:39:32.316Z,9.80
2019-05-13T18:44:42.161Z,9.60
2019-05-13T18:49:51.851Z,9.40
2019-05-13T18:55:03.010Z,9.10
2019-05-13T19:00:11.950Z,8.70
2019-05-13T19:05:21.254Z,8.40
2019-05-13T19:10:31.259Z,8.20
2019-05-13T19:15:41.746Z,7.90
2019-05-13T19:20:51.353Z,7.80
2019-05-13T19:25:58.944Z,7.60
2019-05-13T19:31:06.280Z,7.40
2019-05-13T19:36:16.084Z,7.20
2019-05-13T19:41:27.181Z,7.00
2019-05-13T19:46:37.127Z,6.80
2019-05-13T19:52:06.880Z,6.70
2019-05-13T19:57:16.484Z,6.60
2019-05-13T20:02:25.253Z,6.50
2019-05-13T20:07:35.523Z,6.40
2019-05-13T20:12:46.121Z,6.40
2019-05-13T20:17:58.649Z,6.30
2019-05-13T20:23:08.449Z,6.30
2019-05-13T20:28:19.184Z,6.30
2019-05-13T20:33:28.234Z,6.30
2019-05-13T20:38:39.121Z,6.30
2019-05-13T20:43:46.520Z,6.30
2019-05-13T20:48:57.031Z,6.30
2019-05-13T20:54:06.451Z,6.30
2019-05-13T20:59:14.797Z,6.20
2019-05-13T21:04:24.949Z,6.30
2019-05-13T21:09:32.448Z,6.20
2019-05-13T21:14:41.425Z,6.20
2019-05-13T21:19:52.685Z,6.20
2019-05-13T21:24:59.276Z,6.20
2019-05-13T21:30:11.912Z,6.20
2019-05-13T21:35:21.224Z,6.10
2019-05-13T21:40:32.081Z,6.10
2019-05-13T21:45:41.568Z,6.00
2019-05-13T21:50:51.643Z,6.00
2019-05-13T21:56:02.301Z,6.00
2019-05-13T22:01:11.156Z,6.00
2019-05-13T22:06:21.621Z,5.90
2019-05-13T22:11:31.711Z,5.90
2019-05-13T22:16:41.144Z,5.70
2019-05-13T22:21:51.411Z,5.70
2019-05-13T22:26:58.783Z,5.60
2019-05-13T22:32:06.228Z,5.50
2019-05-13T22:37:14.500Z,5.50
2019-05-13T22:42:23.128Z,5.40
2019-05-13T23:08:39.326Z,4.80
2019-05-13T23:13:51.207Z,4.70
2019-05-13T23:19:00.213Z,4.70
2019-05-13T23:24:11.314Z,4.60
2019-05-13T23:29:21.353Z,4.60
2019-05-13T23:34:29.020Z,4.50
2019-05-13T23:39:41.672Z,4.50
2019-05-13T23:45:01.766Z,4.40
2019-05-13T23:50:12.542Z,4.30
2019-05-13T23:55:22.613Z,4.30
